sensor_id;sensor_type;location;lat;lon;timestamp;pressure;altitude;pressure_sealevel;temperature;humidity
28027;BME280;15344;52.342;-1.290;2022-12-17T00:00:25;100603.78;;;2.39;72.09
28027;BME280;15344;52.342;-1.290;2022-12-17T00:02:45;100604.72;;;3.05;71.90
28027;BME280;15344;52.342;-1.290;2022-12-17T00:05:10;100608.06;;;2.79;71.60
28027;BME280;15344;52.342;-1.290;2022-12-17T00:07:36;100606.66;;;2.63;73.92
28027;BME280;15344;52.342;-1.290;2022-12-17T00:10:02;100606.32;;;2.29;74.64
28027;BME280;15344;52.342;-1.290;2022-12-17T00:12:27;100604.52;;;2.44;74.76
28027;BME280;15344;52.342;-1.290;2022-12-17T00:14:52;100606.91;;;2.47;73.89
28027;BME280;15344;52.342;-1.290;2022-12-17T00:17:18;100612.45;;;1.99;77.48
28027;BME280;15344;52.342;-1.290;2022-12-17T00:19:43;100608.84;;;2.00;77.85
28027;BME280;15344;52.342;-1.290;2022-12-17T00:22:09;100606.44;;;1.98;78.06
28027;BME280;15344;52.342;-1.290;2022-12-17T00:24:34;100605.61;;;1.45;81.10
28027;BME280;15344;52.342;-1.290;2022-12-17T00:26:59;100602.56;;;1.34;82.30
28027;BME280;15344;52.342;-1.290;2022-12-17T00:29:25;100603.81;;;1.25;82.46
28027;BME280;15344;52.342;-1.290;2022-12-17T00:31:50;100601.46;;;1.48;82.18
28027;BME280;15344;52.342;-1.290;2022-12-17T00:34:15;100600.81;;;1.28;82.32
28027;BME280;15344;52.342;-1.290;2022-12-17T00:36:41;100603.78;;;0.87;84.79
28027;BME280;15344;52.342;-1.290;2022-12-17T00:39:07;100613.11;;;1.06;86.18
28027;BME280;15344;52.342;-1.290;2022-12-17T00:41:31;100607.80;;;1.55;83.57
28027;BME280;15344;52.342;-1.290;2022-12-17T00:43:57;100606.05;;;1.51;83.18
28027;BME280;15344;52.342;-1.290;2022-12-17T00:46:23;100601.57;;;1.20;84.59
28027;BME280;15344;52.342;-1.290;2022-12-17T00:48:48;100602.17;;;1.45;84.97
28027;BME280;15344;52.342;-1.290;2022-12-17T00:51:13;100603.84;;;0.89;85.30
28027;BME280;15344;52.342;-1.290;2022-12-17T00:53:39;100611.88;;;1.07;85.80
28027;BME280;15344;52.342;-1.290;2022-12-17T00:56:04;100606.65;;;1.17;86.50
28027;BME280;15344;52.342;-1.290;2022-12-17T00:58:29;100607.53;;;1.26;85.86
28027;BME280;15344;52.342;-1.290;2022-12-17T01:00:57;100604.79;;;1.52;84.55
28027;BME280;15344;52.342;-1.290;2022-12-17T01:03:20;100606.09;;;1.66;83.50
28027;BME280;15344;52.342;-1.290;2022-12-17T01:05:45;100604.84;;;1.85;82.53
28027;BME280;15344;52.342;-1.290;2022-12-17T01:08:13;100600.33;;;1.57;81.77
28027;BME280;15344;52.342;-1.290;2022-12-17T01:10:37;100594.41;;;1.95;81.24
28027;BME280;15344;52.342;-1.290;2022-12-17T01:13:02;100594.31;;;1.37;83.49
28027;BME280;15344;52.342;-1.290;2022-12-17T01:15:27;100590.73;;;0.82;85.99
28027;BME280;15344;52.342;-1.290;2022-12-17T01:17:52;100593.00;;;1.19;84.57
28027;BME280;15344;52.342;-1.290;2022-12-17T01:20:18;100587.76;;;1.10;84.66
28027;BME280;15344;52.342;-1.290;2022-12-17T01:22:45;100585.67;;;1.07;83.94
28027;BME280;15344;52.342;-1.290;2022-12-17T01:25:08;100586.93;;;1.08;84.63
28027;BME280;15344;52.342;-1.290;2022-12-17T01:27:34;100586.41;;;0.94;85.02
28027;BME280;15344;52.342;-1.290;2022-12-17T01:30:00;100588.71;;;0.37;90.01
28027;BME280;15344;52.342;-1.290;2022-12-17T01:32:25;100595.17;;;0.31;91.33
28027;BME280;15344;52.342;-1.290;2022-12-17T01:34:51;100590.82;;;0.30;89.66
28027;BME280;15344;52.342;-1.290;2022-12-17T01:37:16;100586.36;;;0.64;88.78
28027;BME280;15344;52.342;-1.290;2022-12-17T01:39:42;100581.73;;;0.66;86.69
28027;BME280;15344;52.342;-1.290;2022-12-17T01:42:11;100578.80;;;0.49;88.55
28027;BME280;15344;52.342;-1.290;2022-12-17T01:44:44;100581.03;;;0.47;89.67
28027;BME280;15344;52.342;-1.290;2022-12-17T01:46:59;100576.81;;;0.61;88.51
28027;BME280;15344;52.342;-1.290;2022-12-17T01:49:26;100578.32;;;0.53;88.68
28027;BME280;15344;52.342;-1.290;2022-12-17T01:51:54;100582.01;;;0.21;89.35
28027;BME280;15344;52.342;-1.290;2022-12-17T01:54:16;100587.52;;;0.47;90.46
28027;BME280;15344;52.342;-1.290;2022-12-17T01:56:42;100590.46;;;-0.20;91.74
28027;BME280;15344;52.342;-1.290;2022-12-17T01:59:07;100589.15;;;-0.36;94.11
28027;BME280;15344;52.342;-1.290;2022-12-17T02:01:31;100583.85;;;-0.17;95.04
28027;BME280;15344;52.342;-1.290;2022-12-17T02:03:57;100579.01;;;0.24;91.02
28027;BME280;15344;52.342;-1.290;2022-12-17T02:06:24;100572.57;;;0.41;88.55
28027;BME280;15344;52.342;-1.290;2022-12-17T02:08:53;100574.67;;;0.52;86.83
28027;BME280;15344;52.342;-1.290;2022-12-17T02:11:19;100581.05;;;-0.11;90.09
28027;BME280;15344;52.342;-1.290;2022-12-17T02:13:40;100584.44;;;0.11;89.81
28027;BME280;15344;52.342;-1.290;2022-12-17T02:16:08;100580.22;;;0.72;87.63
28027;BME280;15344;52.342;-1.290;2022-12-17T02:18:33;100580.43;;;0.70;88.83
28027;BME280;15344;52.342;-1.290;2022-12-17T02:20:57;100577.85;;;0.65;87.01
28027;BME280;15344;52.342;-1.290;2022-12-17T02:23:33;100583.46;;;-0.08;88.63
28027;BME280;15344;52.342;-1.290;2022-12-17T02:25:50;100578.69;;;0.76;85.98
28027;BME280;15344;52.342;-1.290;2022-12-17T02:28:12;100578.16;;;0.52;87.28
28027;BME280;15344;52.342;-1.290;2022-12-17T02:30:38;100583.85;;;1.05;84.08
28027;BME280;15344;52.342;-1.290;2022-12-17T02:33:04;100585.82;;;1.08;84.12
28027;BME280;15344;52.342;-1.290;2022-12-17T02:35:31;100584.68;;;1.10;83.77
28027;BME280;15344;52.342;-1.290;2022-12-17T02:37:54;100578.74;;;1.35;83.84
28027;BME280;15344;52.342;-1.290;2022-12-17T02:40:21;100581.90;;;1.15;83.93
28027;BME280;15344;52.342;-1.290;2022-12-17T02:42:46;100577.53;;;0.67;86.04
28027;BME280;15344;52.342;-1.290;2022-12-17T02:45:10;100576.20;;;0.06;89.34
28027;BME280;15344;52.342;-1.290;2022-12-17T02:47:36;100569.88;;;0.59;88.17
28027;BME280;15344;52.342;-1.290;2022-12-17T02:50:01;100574.97;;;-0.20;91.40
28027;BME280;15344;52.342;-1.290;2022-12-17T02:52:27;100570.49;;;-0.05;91.79
28027;BME280;15344;52.342;-1.290;2022-12-17T02:54:53;100557.79;;;0.67;90.84
28027;BME280;15344;52.342;-1.290;2022-12-17T02:57:18;100560.57;;;0.76;89.24
28027;BME280;15344;52.342;-1.290;2022-12-17T02:59:43;100557.06;;;1.23;86.99
28027;BME280;15344;52.342;-1.290;2022-12-17T03:02:08;100558.25;;;1.53;84.87
28027;BME280;15344;52.342;-1.290;2022-12-17T03:04:34;100559.15;;;0.49;89.43
28027;BME280;15344;52.342;-1.290;2022-12-17T03:06:59;100551.75;;;0.83;87.90
28027;BME280;15344;52.342;-1.290;2022-12-17T03:09:24;100547.02;;;0.62;89.14
28027;BME280;15344;52.342;-1.290;2022-12-17T03:11:50;100550.64;;;0.75;89.68
28027;BME280;15344;52.342;-1.290;2022-12-17T03:14:15;100547.93;;;1.02;88.01
28027;BME280;15344;52.342;-1.290;2022-12-17T03:16:40;100556.55;;;0.98;87.91
28027;BME280;15344;52.342;-1.290;2022-12-17T03:19:08;100561.72;;;0.77;89.24
28027;BME280;15344;52.342;-1.290;2022-12-17T03:21:31;100555.15;;;0.36;92.12
28027;BME280;15344;52.342;-1.290;2022-12-17T03:23:56;100549.89;;;0.48;91.09
28027;BME280;15344;52.342;-1.290;2022-12-17T03:26:22;100551.86;;;0.01;93.07
28027;BME280;15344;52.342;-1.290;2022-12-17T03:28:48;100559.41;;;0.16;93.07
28027;BME280;15344;52.342;-1.290;2022-12-17T03:31:13;100554.41;;;0.45;93.02
28027;BME280;15344;52.342;-1.290;2022-12-17T03:33:39;100562.70;;;0.06;94.51
28027;BME280;15344;52.342;-1.290;2022-12-17T03:36:05;100564.22;;;-0.23;95.70
28027;BME280;15344;52.342;-1.290;2022-12-17T03:38:30;100559.21;;;-0.14;96.66
28027;BME280;15344;52.342;-1.290;2022-12-17T03:40:56;100555.28;;;0.14;95.44
28027;BME280;15344;52.342;-1.290;2022-12-17T03:43:22;100559.90;;;-0.02;97.22
28027;BME280;15344;52.342;-1.290;2022-12-17T03:45:51;100555.90;;;0.13;98.87
28027;BME280;15344;52.342;-1.290;2022-12-17T03:48:14;100544.59;;;0.16;96.80
28027;BME280;15344;52.342;-1.290;2022-12-17T03:50:40;100542.14;;;0.15;96.96
28027;BME280;15344;52.342;-1.290;2022-12-17T03:53:04;100535.33;;;0.21;97.00
28027;BME280;15344;52.342;-1.290;2022-12-17T03:55:29;100535.00;;;0.23;98.37
28027;BME280;15344;52.342;-1.290;2022-12-17T03:57:55;100535.18;;;0.26;98.36
28027;BME280;15344;52.342;-1.290;2022-12-17T04:00:20;100530.79;;;0.46;97.27
28027;BME280;15344;52.342;-1.290;2022-12-17T04:02:46;100536.98;;;0.26;98.54
28027;BME280;15344;52.342;-1.290;2022-12-17T04:05:11;100536.02;;;0.40;97.90
28027;BME280;15344;52.342;-1.290;2022-12-17T04:07:36;100538.47;;;0.76;96.80
28027;BME280;15344;52.342;-1.290;2022-12-17T04:10:02;100536.08;;;0.89;96.14
28027;BME280;15344;52.342;-1.290;2022-12-17T04:12:27;100537.24;;;1.36;93.93
28027;BME280;15344;52.342;-1.290;2022-12-17T04:14:53;100540.71;;;1.33;92.63
28027;BME280;15344;52.342;-1.290;2022-12-17T04:17:18;100538.88;;;1.39;93.75
28027;BME280;15344;52.342;-1.290;2022-12-17T04:19:43;100537.99;;;1.42;91.82
28027;BME280;15344;52.342;-1.290;2022-12-17T04:22:09;100539.69;;;1.51;91.39
28027;BME280;15344;52.342;-1.290;2022-12-17T04:24:34;100540.75;;;0.69;96.72
28027;BME280;15344;52.342;-1.290;2022-12-17T04:27:00;100540.38;;;0.76;98.03
28027;BME280;15344;52.342;-1.290;2022-12-17T04:29:25;100534.77;;;0.96;97.38
28027;BME280;15344;52.342;-1.290;2022-12-17T04:31:51;100538.82;;;0.97;95.93
28027;BME280;15344;52.342;-1.290;2022-12-17T04:34:17;100536.04;;;1.18;95.70
28027;BME280;15344;52.342;-1.290;2022-12-17T04:36:42;100533.45;;;0.75;97.09
28027;BME280;15344;52.342;-1.290;2022-12-17T04:39:08;100532.04;;;0.92;97.08
28027;BME280;15344;52.342;-1.290;2022-12-17T04:41:33;100537.82;;;0.40;99.45
28027;BME280;15344;52.342;-1.290;2022-12-17T04:43:59;100535.87;;;0.20;100.00
28027;BME280;15344;52.342;-1.290;2022-12-17T04:46:24;100536.74;;;0.93;98.89
28027;BME280;15344;52.342;-1.290;2022-12-17T04:48:49;100537.31;;;0.63;99.78
28027;BME280;15344;52.342;-1.290;2022-12-17T04:51:15;100535.33;;;1.22;96.34
28027;BME280;15344;52.342;-1.290;2022-12-17T04:53:41;100536.58;;;1.50;96.20
28027;BME280;15344;52.342;-1.290;2022-12-17T04:56:07;100535.27;;;1.42;95.61
28027;BME280;15344;52.342;-1.290;2022-12-17T04:58:33;100532.53;;;1.62;94.17
28027;BME280;15344;52.342;-1.290;2022-12-17T05:00:57;100530.02;;;1.50;94.52
28027;BME280;15344;52.342;-1.290;2022-12-17T05:03:23;100529.72;;;1.39;94.46
28027;BME280;15344;52.342;-1.290;2022-12-17T05:05:48;100534.53;;;1.64;92.90
28027;BME280;15344;52.342;-1.290;2022-12-17T05:08:13;100533.90;;;1.93;91.90
28027;BME280;15344;52.342;-1.290;2022-12-17T05:10:39;100531.17;;;2.06;89.15
28027;BME280;15344;52.342;-1.290;2022-12-17T05:13:04;100531.30;;;1.99;89.58
28027;BME280;15344;52.342;-1.290;2022-12-17T05:15:31;100531.34;;;1.98;88.02
28027;BME280;15344;52.342;-1.290;2022-12-17T05:18:03;100529.80;;;2.39;87.68
28027;BME280;15344;52.342;-1.290;2022-12-17T05:20:22;100528.25;;;2.22;87.11
28027;BME280;15344;52.342;-1.290;2022-12-17T05:22:47;100526.71;;;2.76;84.66
28027;BME280;15344;52.342;-1.290;2022-12-17T05:25:13;100524.87;;;2.70;84.78
28027;BME280;15344;52.342;-1.290;2022-12-17T05:27:38;100523.57;;;2.56;85.16
28027;BME280;15344;52.342;-1.290;2022-12-17T05:30:04;100523.49;;;2.71;86.02
28027;BME280;15344;52.342;-1.290;2022-12-17T05:32:29;100522.61;;;2.37;86.61
28027;BME280;15344;52.342;-1.290;2022-12-17T05:34:54;100522.76;;;2.00;89.53
28027;BME280;15344;52.342;-1.290;2022-12-17T05:37:21;100526.56;;;2.70;87.50
28027;BME280;15344;52.342;-1.290;2022-12-17T05:39:46;100529.28;;;2.25;89.89
28027;BME280;15344;52.342;-1.290;2022-12-17T05:42:11;100530.25;;;2.47;88.70
28027;BME280;15344;52.342;-1.290;2022-12-17T05:44:36;100529.71;;;2.28;89.59
28027;BME280;15344;52.342;-1.290;2022-12-17T05:47:02;100530.25;;;1.61;91.49
28027;BME280;15344;52.342;-1.290;2022-12-17T05:49:27;100534.12;;;2.14;90.85
28027;BME280;15344;52.342;-1.290;2022-12-17T05:51:53;100536.25;;;2.34;89.00
28027;BME280;15344;52.342;-1.290;2022-12-17T05:54:19;100535.41;;;2.87;86.24
28027;BME280;15344;52.342;-1.290;2022-12-17T05:56:45;100540.68;;;3.26;83.03
28027;BME280;15344;52.342;-1.290;2022-12-17T05:59:10;100543.53;;;3.28;82.38
28027;BME280;15344;52.342;-1.290;2022-12-17T06:01:36;100542.65;;;3.28;82.67
28027;BME280;15344;52.342;-1.290;2022-12-17T06:04:02;100542.95;;;3.42;81.70
28027;BME280;15344;52.342;-1.290;2022-12-17T06:06:28;100547.15;;;3.16;82.13
28027;BME280;15344;52.342;-1.290;2022-12-17T06:08:52;100551.64;;;3.37;80.99
28027;BME280;15344;52.342;-1.290;2022-12-17T06:11:18;100549.43;;;3.49;81.34
28027;BME280;15344;52.342;-1.290;2022-12-17T06:13:43;100547.75;;;3.27;81.24
28027;BME280;15344;52.342;-1.290;2022-12-17T06:16:08;100546.10;;;2.71;84.65
28027;BME280;15344;52.342;-1.290;2022-12-17T06:18:34;100545.02;;;2.37;86.58
28027;BME280;15344;52.342;-1.290;2022-12-17T06:20:59;100550.54;;;2.29;89.02
28027;BME280;15344;52.342;-1.290;2022-12-17T06:23:24;100551.61;;;1.67;90.64
28027;BME280;15344;52.342;-1.290;2022-12-17T06:25:52;100554.01;;;2.20;91.41
28027;BME280;15344;52.342;-1.290;2022-12-17T06:28:16;100557.92;;;2.49;88.38
28027;BME280;15344;52.342;-1.290;2022-12-17T06:30:41;100559.43;;;1.92;91.99
28027;BME280;15344;52.342;-1.290;2022-12-17T06:33:09;100558.20;;;2.17;88.49
28027;BME280;15344;52.342;-1.290;2022-12-17T06:35:33;100559.39;;;2.26;88.84
28027;BME280;15344;52.342;-1.290;2022-12-17T06:37:59;100560.63;;;2.25;87.74
28027;BME280;15344;52.342;-1.290;2022-12-17T06:40:23;100563.93;;;2.53;87.52
28027;BME280;15344;52.342;-1.290;2022-12-17T06:42:52;100564.06;;;2.32;86.66
28027;BME280;15344;52.342;-1.290;2022-12-17T06:45:15;100564.63;;;2.92;84.13
28027;BME280;15344;52.342;-1.290;2022-12-17T06:47:40;100570.36;;;2.97;83.25
28027;BME280;15344;52.342;-1.290;2022-12-17T06:50:06;100572.81;;;3.34;80.24
28027;BME280;15344;52.342;-1.290;2022-12-17T06:52:30;100577.82;;;3.76;78.11
28027;BME280;15344;52.342;-1.290;2022-12-17T06:54:56;100577.90;;;4.03;77.13
28027;BME280;15344;52.342;-1.290;2022-12-17T06:57:22;100577.25;;;3.80;76.29
28027;BME280;15344;52.342;-1.290;2022-12-17T06:59:47;100579.58;;;3.16;80.48
28027;BME280;15344;52.342;-1.290;2022-12-17T07:02:12;100578.52;;;2.84;81.96
28027;BME280;15344;52.342;-1.290;2022-12-17T07:04:38;100575.84;;;2.27;85.70
28027;BME280;15344;52.342;-1.290;2022-12-17T07:07:03;100575.21;;;2.04;88.36
28027;BME280;15344;52.342;-1.290;2022-12-17T07:09:28;100570.27;;;1.81;90.62
28027;BME280;15344;52.342;-1.290;2022-12-17T07:11:54;100572.73;;;1.25;94.78
28027;BME280;15344;52.342;-1.290;2022-12-17T07:14:19;100569.94;;;1.57;94.16
28027;BME280;15344;52.342;-1.290;2022-12-17T07:16:45;100572.83;;;1.70;94.35
28027;BME280;15344;52.342;-1.290;2022-12-17T07:19:10;100575.63;;;1.41;96.13
28027;BME280;15344;52.342;-1.290;2022-12-17T07:21:36;100576.07;;;1.39;95.88
28027;BME280;15344;52.342;-1.290;2022-12-17T07:24:02;100577.58;;;1.48;93.01
28027;BME280;15344;52.342;-1.290;2022-12-17T07:26:27;100575.34;;;1.68;94.38
28027;BME280;15344;52.342;-1.290;2022-12-17T07:28:53;100571.69;;;1.58;93.26
28027;BME280;15344;52.342;-1.290;2022-12-17T07:31:18;100569.84;;;1.09;96.19
28027;BME280;15344;52.342;-1.290;2022-12-17T07:33:44;100570.76;;;1.55;94.58
28027;BME280;15344;52.342;-1.290;2022-12-17T07:36:10;100570.97;;;1.68;93.50
28027;BME280;15344;52.342;-1.290;2022-12-17T07:38:35;100573.34;;;1.41;95.77
28027;BME280;15344;52.342;-1.290;2022-12-17T07:41:01;100580.60;;;1.45;96.37
28027;BME280;15344;52.342;-1.290;2022-12-17T07:43:26;100582.24;;;1.36;94.75
28027;BME280;15344;52.342;-1.290;2022-12-17T07:45:51;100586.28;;;1.43;95.45
28027;BME280;15344;52.342;-1.290;2022-12-17T07:48:17;100583.77;;;1.47;96.72
28027;BME280;15344;52.342;-1.290;2022-12-17T07:50:46;100590.04;;;1.63;95.44
28027;BME280;15344;52.342;-1.290;2022-12-17T07:53:08;100593.86;;;1.53;93.70
28027;BME280;15344;52.342;-1.290;2022-12-17T07:55:33;100593.00;;;1.67;96.78
28027;BME280;15344;52.342;-1.290;2022-12-17T07:58:00;100598.71;;;1.71;93.49
28027;BME280;15344;52.342;-1.290;2022-12-17T08:00:25;100607.25;;;1.48;95.37
28027;BME280;15344;52.342;-1.290;2022-12-17T08:02:55;100608.40;;;1.47;96.07
28027;BME280;15344;52.342;-1.290;2022-12-17T08:05:16;100608.83;;;1.78;93.74
28027;BME280;15344;52.342;-1.290;2022-12-17T08:07:41;100607.91;;;1.35;95.11
28027;BME280;15344;52.342;-1.290;2022-12-17T08:10:08;100605.83;;;1.49;94.56
28027;BME280;15344;52.342;-1.290;2022-12-17T08:12:32;100608.08;;;1.94;92.19
28027;BME280;15344;52.342;-1.290;2022-12-17T08:14:58;100606.14;;;1.76;93.39
28027;BME280;15344;52.342;-1.290;2022-12-17T08:17:23;100603.58;;;1.90;94.59
28027;BME280;15344;52.342;-1.290;2022-12-17T08:19:49;100609.20;;;1.65;91.68
28027;BME280;15344;52.342;-1.290;2022-12-17T08:22:14;100603.91;;;2.45;88.69
28027;BME280;15344;52.342;-1.290;2022-12-17T08:24:40;100610.97;;;2.55;88.76
28027;BME280;15344;52.342;-1.290;2022-12-17T08:27:05;100608.11;;;2.66;87.54
28027;BME280;15344;52.342;-1.290;2022-12-17T08:29:31;100610.74;;;2.93;85.44
28027;BME280;15344;52.342;-1.290;2022-12-17T08:31:56;100608.62;;;3.13;84.54
28027;BME280;15344;52.342;-1.290;2022-12-17T08:34:22;100609.02;;;2.71;85.42
28027;BME280;15344;52.342;-1.290;2022-12-17T08:36:47;100607.90;;;2.71;87.53
28027;BME280;15344;52.342;-1.290;2022-12-17T08:39:13;100612.85;;;2.61;87.61
28027;BME280;15344;52.342;-1.290;2022-12-17T08:41:38;100613.22;;;2.59;87.51
28027;BME280;15344;52.342;-1.290;2022-12-17T08:44:03;100615.22;;;2.82;85.30
28027;BME280;15344;52.342;-1.290;2022-12-17T08:46:28;100619.31;;;2.20;89.15
28027;BME280;15344;52.342;-1.290;2022-12-17T08:48:54;100619.44;;;2.49;88.32
28027;BME280;15344;52.342;-1.290;2022-12-17T08:51:20;100619.75;;;2.99;85.46
28027;BME280;15344;52.342;-1.290;2022-12-17T08:53:46;100630.65;;;2.54;86.74
28027;BME280;15344;52.342;-1.290;2022-12-17T08:56:11;100628.41;;;2.69;86.96
28027;BME280;15344;52.342;-1.290;2022-12-17T08:58:36;100635.07;;;2.41;87.88
28027;BME280;15344;52.342;-1.290;2022-12-17T09:01:02;100635.00;;;2.85;87.97
28027;BME280;15344;52.342;-1.290;2022-12-17T09:03:27;100640.00;;;2.38;89.42
28027;BME280;15344;52.342;-1.290;2022-12-17T09:05:52;100640.74;;;2.75;90.32
28027;BME280;15344;52.342;-1.290;2022-12-17T09:08:18;100642.47;;;2.55;89.80
28027;BME280;15344;52.342;-1.290;2022-12-17T09:10:44;100639.50;;;2.90;88.60
28027;BME280;15344;52.342;-1.290;2022-12-17T09:13:09;100644.91;;;2.82;87.37
28027;BME280;15344;52.342;-1.290;2022-12-17T09:15:34;100647.45;;;3.15;85.35
28027;BME280;15344;52.342;-1.290;2022-12-17T09:18:00;100649.89;;;3.46;84.83
28027;BME280;15344;52.342;-1.290;2022-12-17T09:20:25;100652.69;;;3.78;84.53
28027;BME280;15344;52.342;-1.290;2022-12-17T09:22:50;100652.30;;;3.20;84.77
28027;BME280;15344;52.342;-1.290;2022-12-17T09:25:16;100658.94;;;3.61;84.14
28027;BME280;15344;52.342;-1.290;2022-12-17T09:27:42;100659.90;;;3.56;84.91
28027;BME280;15344;52.342;-1.290;2022-12-17T09:30:08;100661.35;;;3.71;84.50
28027;BME280;15344;52.342;-1.290;2022-12-17T09:32:33;100658.18;;;3.59;84.88
28027;BME280;15344;52.342;-1.290;2022-12-17T09:34:58;100656.24;;;3.33;86.12
28027;BME280;15344;52.342;-1.290;2022-12-17T09:37:24;100655.48;;;3.09;89.42
28027;BME280;15344;52.342;-1.290;2022-12-17T09:39:49;100658.82;;;3.48;87.74
28027;BME280;15344;52.342;-1.290;2022-12-17T09:42:20;100659.20;;;3.35;88.28
28027;BME280;15344;52.342;-1.290;2022-12-17T09:44:46;100655.79;;;2.98;89.51
28027;BME280;15344;52.342;-1.290;2022-12-17T09:47:16;100652.31;;;3.00;91.62
28027;BME280;15344;52.342;-1.290;2022-12-17T09:49:32;100657.05;;;2.69;93.64
28027;BME280;15344;52.342;-1.290;2022-12-17T09:51:57;100657.02;;;2.63;94.31
28027;BME280;15344;52.342;-1.290;2022-12-17T09:54:28;100650.08;;;3.03;92.42
28027;BME280;15344;52.342;-1.290;2022-12-17T09:56:49;100652.56;;;3.13;92.48
28027;BME280;15344;52.342;-1.290;2022-12-17T09:59:19;100654.52;;;3.63;89.60
28027;BME280;15344;52.342;-1.290;2022-12-17T10:01:39;100652.81;;;3.76;89.09
28027;BME280;15344;52.342;-1.290;2022-12-17T10:04:11;100653.57;;;3.61;88.28
28027;BME280;15344;52.342;-1.290;2022-12-17T10:06:30;100649.17;;;4.33;85.39
28027;BME280;15344;52.342;-1.290;2022-12-17T10:08:59;100651.89;;;4.29;85.01
28027;BME280;15344;52.342;-1.290;2022-12-17T10:11:23;100653.61;;;4.34;85.79
28027;BME280;15344;52.342;-1.290;2022-12-17T10:13:46;100651.66;;;4.74;83.09
28027;BME280;15344;52.342;-1.290;2022-12-17T10:16:26;100658.31;;;4.06;85.04
28027;BME280;15344;52.342;-1.290;2022-12-17T10:18:36;100651.86;;;4.18;85.90
28027;BME280;15344;52.342;-1.290;2022-12-17T10:21:04;100647.45;;;4.58;84.03
28027;BME280;15344;52.342;-1.290;2022-12-17T10:23:29;100643.96;;;5.01;82.78
28027;BME280;15344;52.342;-1.290;2022-12-17T10:25:54;100647.61;;;4.65;83.76
28027;BME280;15344;52.342;-1.290;2022-12-17T10:28:19;100649.89;;;3.84;84.91
28027;BME280;15344;52.342;-1.290;2022-12-17T10:30:43;100648.08;;;4.25;85.33
28027;BME280;15344;52.342;-1.290;2022-12-17T10:33:14;100643.88;;;4.21;86.34
28027;BME280;15344;52.342;-1.290;2022-12-17T10:35:36;100643.45;;;4.57;85.05
28027;BME280;15344;52.342;-1.290;2022-12-17T10:38:00;100643.96;;;4.66;83.83
28027;BME280;15344;52.342;-1.290;2022-12-17T10:40:27;100643.59;;;4.99;83.45
28027;BME280;15344;52.342;-1.290;2022-12-17T10:42:50;100644.87;;;5.29;80.35
28027;BME280;15344;52.342;-1.290;2022-12-17T10:45:20;100640.31;;;5.50;79.18
28027;BME280;15344;52.342;-1.290;2022-12-17T10:47:43;100643.65;;;5.46;79.36
28027;BME280;15344;52.342;-1.290;2022-12-17T10:50:10;100642.86;;;5.46;78.64
28027;BME280;15344;52.342;-1.290;2022-12-17T10:52:32;100639.50;;;5.53;79.40
28027;BME280;15344;52.342;-1.290;2022-12-17T10:55:01;100642.76;;;5.63;78.36
28027;BME280;15344;52.342;-1.290;2022-12-17T10:57:26;100645.76;;;5.50;80.27
28027;BME280;15344;52.342;-1.290;2022-12-17T10:59:49;100645.14;;;5.76;79.19
28027;BME280;15344;52.342;-1.290;2022-12-17T11:02:18;100647.47;;;6.13;77.81
28027;BME280;15344;52.342;-1.290;2022-12-17T11:04:49;100648.25;;;6.34;76.42
28027;BME280;15344;52.342;-1.290;2022-12-17T11:07:06;100649.39;;;6.13;77.12
28027;BME280;15344;52.342;-1.290;2022-12-17T11:09:36;100647.06;;;5.93;76.87
28027;BME280;15344;52.342;-1.290;2022-12-17T11:11:56;100645.59;;;6.00;78.31
28027;BME280;15344;52.342;-1.290;2022-12-17T11:14:21;100642.32;;;5.93;79.13
28027;BME280;15344;52.342;-1.290;2022-12-17T11:16:51;100640.30;;;6.10;78.99
28027;BME280;15344;52.342;-1.290;2022-12-17T11:19:26;100640.34;;;6.79;76.79
28027;BME280;15344;52.342;-1.290;2022-12-17T11:21:40;100641.37;;;6.25;78.49
28027;BME280;15344;52.342;-1.290;2022-12-17T11:24:02;100637.18;;;6.29;77.74
28027;BME280;15344;52.342;-1.290;2022-12-17T11:26:30;100636.03;;;6.21;78.45
28027;BME280;15344;52.342;-1.290;2022-12-17T11:28:53;100641.37;;;5.72;80.32
28027;BME280;15344;52.342;-1.290;2022-12-17T11:31:31;100640.34;;;6.02;79.40
28027;BME280;15344;52.342;-1.290;2022-12-17T11:33:48;100645.91;;;6.15;80.02
28027;BME280;15344;52.342;-1.290;2022-12-17T11:36:13;100644.44;;;6.47;78.49
28027;BME280;15344;52.342;-1.290;2022-12-17T11:38:37;100646.98;;;6.21;78.01
28027;BME280;15344;52.342;-1.290;2022-12-17T11:41:07;100647.26;;;6.21;79.21
28027;BME280;15344;52.342;-1.290;2022-12-17T11:43:31;100647.17;;;5.14;82.90
28027;BME280;15344;52.342;-1.290;2022-12-17T11:45:58;100645.46;;;5.15;85.02
28027;BME280;15344;52.342;-1.290;2022-12-17T11:48:22;100641.35;;;5.40;84.06
28027;BME280;15344;52.342;-1.290;2022-12-17T11:50:45;100642.21;;;6.24;82.15
28027;BME280;15344;52.342;-1.290;2022-12-17T11:53:17;100631.97;;;6.47;80.63
28027;BME280;15344;52.342;-1.290;2022-12-17T11:55:36;100631.18;;;6.16;80.70
28027;BME280;15344;52.342;-1.290;2022-12-17T11:58:01;100634.52;;;5.66;82.41
28027;BME280;15344;52.342;-1.290;2022-12-17T12:00:23;100631.87;;;6.02;82.38
28027;BME280;15344;52.342;-1.290;2022-12-17T12:02:54;100634.40;;;6.02;81.47
28027;BME280;15344;52.342;-1.290;2022-12-17T12:05:20;100630.61;;;6.22;79.98
28027;BME280;15344;52.342;-1.290;2022-12-17T12:07:44;100630.37;;;6.40;80.13
28027;BME280;15344;52.342;-1.290;2022-12-17T12:10:07;100627.44;;;6.25;80.10
28027;BME280;15344;52.342;-1.290;2022-12-17T12:12:40;100630.47;;;6.49;78.64
28027;BME280;15344;52.342;-1.290;2022-12-17T12:15:01;100632.40;;;6.32;79.53
28027;BME280;15344;52.342;-1.290;2022-12-17T12:17:31;100630.53;;;6.80;76.79
28027;BME280;15344;52.342;-1.290;2022-12-17T12:19:53;100633.36;;;5.88;79.79
28027;BME280;15344;52.342;-1.290;2022-12-17T12:22:17;100632.61;;;5.28;83.00
28027;BME280;15344;52.342;-1.290;2022-12-17T12:24:49;100635.39;;;4.47;88.81
28027;BME280;15344;52.342;-1.290;2022-12-17T12:27:08;100627.76;;;4.98;86.66
28027;BME280;15344;52.342;-1.290;2022-12-17T12:29:34;100625.67;;;5.19;88.63
28027;BME280;15344;52.342;-1.290;2022-12-17T12:31:59;100626.29;;;5.08;87.04
28027;BME280;15344;52.342;-1.290;2022-12-17T12:34:22;100622.86;;;5.31;86.61
28027;BME280;15344;52.342;-1.290;2022-12-17T12:36:45;100626.08;;;5.41;85.04
28027;BME280;15344;52.342;-1.290;2022-12-17T12:39:12;100626.21;;;5.78;83.50